Time;durP1;ratioP1;P1;durP2;ratioP2;P2;SDS_P1;SDS_P2;PMS_P1;PMS_P2;Temp;Humidity;BMP_temperature;BMP_pressure;BME280_temperature;BME280_humidity;BME280_pressure;Samples;Min_cycle;Max_cycle;Signal;HPM_P1;HPM_P2
2023/05/18 00:02:25;;;;;;;2.25;0.90;;;;;;;16.11;64.33;98207.75;4942587;28;20478;-83
2023/05/18 00:04:50;;;;;;;3.20;1.30;;;;;;;16.07;64.38;98199.38;4958639;28;20057;-83
2023/05/18 00:07:16;;;;;;;1.85;0.98;;;;;;;16.11;64.28;98202.50;4942200;28;20041;-83
2023/05/18 00:09:41;;;;;;;1.60;1.00;;;;;;;16.09;64.29;98196.59;4957911;28;20517;-83
2023/05/18 00:12:08;;;;;;;2.30;1.10;;;;;;;16.03;64.28;98184.88;4975492;28;20046;-83
2023/05/18 00:14:34;;;;;;;2.80;1.08;;;;;;;16.04;64.41;98191.81;4942334;28;20467;-84
2023/05/18 00:17:02;;;;;;;2.40;1.10;;;;;;;16.03;64.12;98195.41;4958055;28;20043;-81
2023/05/18 00:19:28;;;;;;;3.20;1.20;;;;;;;15.98;64.36;98197.72;4943048;28;20407;-81
2023/05/18 00:21:57;;;;;;;1.60;0.90;;;;;;;15.97;64.34;98192.63;4942353;28;20166;-81
2023/05/18 00:24:22;;;;;;;2.85;1.20;;;;;;;15.97;64.37;98208.44;4942892;28;20506;-82
2023/05/18 00:26:48;;;;;;;3.33;1.27;;;;;;;15.97;64.21;98211.06;4958089;28;20093;-81
2023/05/18 00:29:13;;;;;;;4.90;1.08;;;;;;;15.95;64.24;98207.78;4958010;28;20049;-81
2023/05/18 00:31:39;;;;;;;2.45;1.20;;;;;;;15.91;64.34;98200.22;4942269;28;20064;-81
2023/05/18 00:34:05;;;;;;;1.67;0.98;;;;;;;15.92;64.18;98208.91;4957816;28;20190;-81
2023/05/18 00:36:31;;;;;;;2.25;1.00;;;;;;;15.83;64.31;98197.56;4975316;28;20037;-81
2023/05/18 00:39:00;;;;;;;1.40;0.90;;;;;;;15.89;64.35;98212.72;4957514;28;20410;-81
2023/05/18 00:41:26;;;;;;;2.05;1.10;;;;;;;15.90;64.27;98216.16;4957604;28;20062;-81
2023/05/18 00:43:52;;;;;;;3.08;1.23;;;;;;;15.85;64.40;98202.69;4941648;28;20067;-81
2023/05/18 00:46:17;;;;;;;2.42;1.23;;;;;;;15.82;64.22;98205.63;4941481;28;20145;-81
2023/05/18 00:48:43;;;;;;;2.20;1.10;;;;;;;15.83;64.26;98202.84;4957557;28;20070;-81
2023/05/18 00:51:08;;;;;;;5.30;1.30;;;;;;;15.85;64.20;98207.94;4941469;28;20035;-81
2023/05/18 00:53:34;;;;;;;2.05;1.10;;;;;;;15.81;64.10;98203.97;4941851;28;20414;-82
2023/05/18 00:56:00;;;;;;;1.92;1.25;;;;;;;15.82;64.10;98214.34;4924922;28;20069;-83
2023/05/18 00:58:25;;;;;;;2.25;1.00;;;;;;;15.82;64.29;98218.78;4957291;28;20059;-83
2023/05/18 01:00:51;;;;;;;2.10;1.00;;;;;;;15.77;64.13;98213.22;4941395;28;20042;-82
2023/05/18 01:03:19;;;;;;;2.05;1.10;;;;;;;15.79;64.26;98211.22;4957293;28;20030;-82
2023/05/18 01:05:48;;;;;;;3.15;1.10;;;;;;;15.78;64.18;98214.84;4957868;28;20134;-82
2023/05/18 01:08:15;;;;;;;3.00;1.17;;;;;;;15.77;64.17;98219.28;4957825;28;20113;-82
2023/05/18 01:10:40;;;;;;;1.65;1.10;;;;;;;15.77;64.36;98219.28;4940887;28;20053;-83
2023/05/18 01:13:19;;;;;;;1.30;0.90;;;;;;;15.73;64.27;98210.88;4957025;28;20118;-83
2023/05/18 01:15:45;;;;;;;2.58;1.05;;;;;;;15.77;64.15;98213.22;4942491;28;20422;-82
2023/05/18 01:18:27;;;;;;;3.85;1.13;;;;;;;15.75;64.33;98210.72;4956742;28;20050;-83
2023/05/18 01:21:32;;;;;;;1.77;0.95;;;;;;;15.73;64.16;98202.97;4941920;28;20039;-83
2023/05/18 01:24:16;;;;;;;3.40;1.30;;;;;;;15.72;64.16;98201.31;4973723;28;20129;-82
2023/05/18 01:26:44;;;;;;;2.83;1.30;;;;;;;15.67;64.18;98198.34;4974133;28;20401;-83
2023/05/18 01:29:10;;;;;;;2.78;1.10;;;;;;;15.67;64.24;98201.00;4974191;28;20383;-83
2023/05/18 01:31:36;;;;;;;3.05;1.00;;;;;;;15.69;64.43;98211.34;4941274;28;20042;-83
2023/05/18 01:34:01;;;;;;;2.67;1.10;;;;;;;15.67;64.16;98215.94;4940766;28;20093;-82
2023/05/18 01:36:27;;;;;;;2.15;1.20;;;;;;;15.68;64.08;98218.41;4941325;28;20047;-82
2023/05/18 01:38:52;;;;;;;3.08;1.48;;;;;;;15.68;64.07;98225.47;4973637;28;20046;-82
2023/05/18 01:41:22;;;;;;;4.20;1.23;;;;;;;15.67;63.97;98223.81;4956618;28;20046;-82
2023/05/18 01:44:04;;;;;;;5.25;1.33;;;;;;;15.66;64.13;98225.66;4940942;28;20035;-82
2023/05/18 01:46:45;;;;;;;2.60;1.38;;;;;;;15.64;64.22;98226.78;4942119;28;20038;-82
2023/05/18 01:49:15;;;;;;;2.00;1.10;;;;;;;15.61;64.21;98224.47;4973629;28;20035;-82
2023/05/18 01:51:44;;;;;;;3.20;1.27;;;;;;;15.63;64.25;98222.53;4941385;28;20042;-83
2023/05/18 01:54:09;;;;;;;1.92;1.25;;;;;;;15.62;64.22;98224.31;4940722;28;20045;-82
2023/05/18 01:56:35;;;;;;;3.40;1.20;;;;;;;15.62;64.14;98224.31;4956147;28;20043;-83
2023/05/18 01:59:00;;;;;;;2.10;1.20;;;;;;;15.62;64.14;98228.75;4956783;28;20515;-82
2023/05/18 02:01:26;;;;;;;2.22;1.33;;;;;;;15.62;63.90;98236.66;4941045;28;20065;-82
2023/05/18 02:03:51;;;;;;;1.90;1.10;;;;;;;15.60;64.16;98230.72;4955969;28;20102;-82
2023/05/18 02:06:17;;;;;;;1.77;1.20;;;;;;;15.60;64.43;98234.19;4924354;28;20043;-82
2023/05/18 02:08:42;;;;;;;7.93;1.30;;;;;;;15.56;63.99;98228.44;4956339;28;20031;-82
2023/05/18 02:11:08;;;;;;;1.85;1.13;;;;;;;15.59;64.10;98236.97;4973400;28;20039;-82
2023/05/18 02:13:33;;;;;;;3.60;1.40;;;;;;;15.59;63.89;98244.88;4973984;28;20039;-83
2023/05/18 02:15:59;;;;;;;2.38;1.30;;;;;;;15.59;63.96;98243.03;4939857;28;20058;-82
2023/05/18 02:18:25;;;;;;;3.47;1.30;;;;;;;15.59;64.19;98248.31;4956227;28;20105;-81
2023/05/18 02:20:58;;;;;;;2.10;1.30;;;;;;;15.58;64.08;98245.88;4940562;28;20458;-82
2023/05/18 02:23:23;;;;;;;2.90;1.10;;;;;;;15.58;64.04;98251.13;4940370;28;20039;-81
2023/05/18 02:25:49;;;;;;;2.13;1.30;;;;;;;15.52;64.11;98240.25;4973584;28;20051;-82
2023/05/18 02:28:15;;;;;;;2.40;1.35;;;;;;;15.56;64.12;98253.91;4956360;28;20158;-81
2023/05/18 02:30:40;;;;;;;2.30;1.40;;;;;;;15.55;64.04;98255.72;4955944;28;20479;-81
2023/05/18 02:33:07;;;;;;;4.20;1.30;;;;;;;15.53;64.00;98260.31;4956334;28;20051;-82
2023/05/18 02:35:34;;;;;;;2.30;1.20;;;;;;;15.52;64.08;98266.53;4928082;28;20138;-83
2023/05/18 02:37:59;;;;;;;3.88;1.42;;;;;;;15.49;64.00;98264.22;4928097;28;20039;-80
2023/05/18 02:40:25;;;;;;;1.73;1.23;;;;;;;15.52;64.00;98278.88;4959830;28;20406;-80
2023/05/18 02:42:51;;;;;;;4.13;1.38;;;;;;;15.52;63.91;98287.59;4960142;28;20105;-80
2023/05/18 02:45:16;;;;;;;4.70;1.55;;;;;;;15.52;63.91;98289.41;4960122;28;20101;-80
2023/05/18 02:47:44;;;;;;;1.55;1.13;;;;;;;15.43;63.88;98271.94;4959259;28;20030;-80
2023/05/18 02:50:10;;;;;;;5.07;1.75;;;;;;;15.51;63.96;98293.84;4944404;28;20035;-80
2023/05/18 02:52:35;;;;;;;2.05;1.27;;;;;;;15.53;63.91;98293.69;4976858;28;20035;-81
2023/05/18 02:55:01;;;;;;;2.90;1.40;;;;;;;15.52;64.02;98299.94;4958874;28;20395;-81
2023/05/18 02:57:26;;;;;;;3.22;1.40;;;;;;;15.53;63.92;98302.41;4943428;28;20121;-82
2023/05/18 02:59:52;;;;;;;1.90;1.25;;;;;;;15.53;63.97;98309.47;4977006;28;20097;-82
2023/05/18 03:02:17;;;;;;;2.28;1.33;;;;;;;15.55;63.85;98310.13;4959375;28;20121;-81
2023/05/18 03:04:43;;;;;;;2.08;1.60;;;;;;;15.58;63.80;98314.25;4976713;28;20054;-81
2023/05/18 03:07:09;;;;;;;2.25;1.30;;;;;;;15.59;63.89;98308.81;4943461;28;20038;-82
2023/05/18 03:09:35;;;;;;;2.35;1.55;;;;;;;15.58;63.70;98307.19;4959394;28;20047;-82
2023/05/18 03:12:01;;;;;;;3.67;1.33;;;;;;;15.63;63.85;98317.22;4959123;28;20185;-81
2023/05/18 03:14:26;;;;;;;2.22;1.40;;;;;;;15.63;63.64;98312.78;4977201;28;20081;-81
2023/05/18 03:16:53;;;;;;;2.72;1.50;;;;;;;15.67;63.85;98318.53;4976408;28;20055;-81
2023/05/18 03:19:21;;;;;;;1.90;1.40;;;;;;;15.69;63.84;98321.88;4959153;28;20035;-79
2023/05/18 03:21:48;;;;;;;;;;;;;;;15.87;69.85;98313.88;4945030;28;20533;-82
2023/05/18 03:24:15;;;;;;;2.10;1.08;;;;;;;16.28;71.28;98311.28;4976360;28;19961;-79
2023/05/18 03:26:43;;;;;;;1.85;1.10;;;;;;;16.33;69.64;98322.16;4927380;28;20034;-79
2023/05/18 03:29:08;;;;;;;4.43;1.38;;;;;;;16.32;68.50;98322.31;4976240;28;20031;-72
2023/05/18 03:31:34;;;;;;;2.08;1.15;;;;;;;16.30;67.93;98325.09;4976001;28;20031;-72
2023/05/18 03:33:59;;;;;;;3.67;1.20;;;;;;;16.27;67.31;98325.44;4958876;28;20043;-71
2023/05/18 03:36:26;;;;;;;2.40;1.13;;;;;;;16.24;66.88;98325.75;4958787;28;20046;-72
2023/05/18 03:38:52;;;;;;;1.60;1.15;;;;;;;16.23;66.65;98318.88;4943674;28;20043;-72
2023/05/18 03:41:18;;;;;;;1.85;1.23;;;;;;;16.26;66.43;98331.72;4958711;28;20042;-73
2023/05/18 03:43:43;;;;;;;2.10;1.00;;;;;;;16.26;66.21;98342.25;4958565;28;20482;-72
2023/05/18 03:46:09;;;;;;;2.00;1.27;;;;;;;16.22;66.00;98335.63;4975553;28;20075;-79
2023/05/18 03:48:34;;;;;;;5.03;1.30;;;;;;;16.26;65.87;98344.88;4926574;28;20438;-71
2023/05/18 03:51:00;;;;;;;2.95;1.40;;;;;;;16.28;65.72;98342.91;4958275;28;20038;-74
2023/05/18 03:53:26;;;;;;;2.58;1.20;;;;;;;16.25;65.44;98338.75;4942181;28;20043;-76
2023/05/18 03:55:51;;;;;;;2.65;1.40;;;;;;;16.31;65.37;98350.47;4958064;28;20510;-73
2023/05/18 03:58:18;;;;;;;2.25;1.33;;;;;;;16.32;65.30;98348.66;4975492;28;20035;-74
2023/05/18 04:00:45;;;;;;;4.45;1.50;;;;;;;16.37;65.07;98349.81;4958609;28;20574;-78
2023/05/18 04:03:11;;;;;;;2.90;1.20;;;;;;;16.40;65.06;98351.31;4942369;28;20058;-76
2023/05/18 04:05:38;;;;;;;1.95;1.38;;;;;;;16.46;65.02;98348.00;4942320;28;20041;-73
2023/05/18 04:08:03;;;;;;;4.07;1.80;;;;;;;16.75;68.73;98351.97;4957877;28;20521;-75
2023/05/18 04:10:29;;;;;;;9.07;1.75;;;;;;;16.78;67.78;98352.44;4957333;28;20038;-74
2023/05/18 04:12:55;;;;;;;6.18;1.63;;;;;;;16.91;67.02;98357.25;4975535;28;20106;-80
2023/05/18 04:15:20;;;;;;;3.45;1.50;;;;;;;16.96;66.48;98356.75;4941298;28;20058;-82
2023/05/18 04:17:48;;;;;;;3.85;1.35;;;;;;;17.00;66.16;98356.25;4958217;28;20051;-79
2023/05/18 04:20:14;;;;;;;5.82;1.70;;;;;;;17.07;65.43;98356.41;4942738;28;20062;-81
2023/05/18 04:22:45;;;;;;;3.90;1.65;;;;;;;17.08;65.18;98347.50;4941701;28;20505;-80
2023/05/18 04:25:11;;;;;;;2.95;1.45;;;;;;;17.19;64.86;98356.88;4959483;28;20089;-81
2023/05/18 04:27:37;;;;;;;4.75;1.63;;;;;;;17.24;64.72;98351.09;4957926;28;20039;-80
2023/05/18 04:30:03;;;;;;;5.60;1.60;;;;;;;17.26;64.59;98352.56;4958083;28;20506;-80
2023/05/18 04:32:29;;;;;;;6.47;1.80;;;;;;;17.33;64.20;98356.19;4958303;28;20470;-80
2023/05/18 04:34:57;;;;;;;2.72;1.65;;;;;;;17.38;63.96;98357.47;4957943;28;20035;-80
2023/05/18 04:37:23;;;;;;;4.70;1.60;;;;;;;17.44;63.89;98362.06;4941838;28;20070;-80
2023/05/18 04:39:49;;;;;;;4.20;1.60;;;;;;;17.44;63.70;98370.81;4941920;28;20048;-80
2023/05/18 04:42:17;;;;;;;4.38;1.50;;;;;;;17.50;63.76;98366.66;4957622;28;20149;-80
2023/05/18 04:44:42;;;;;;;2.20;1.60;;;;;;;17.52;63.46;98368.16;4975054;28;20038;-80
2023/05/18 04:47:08;;;;;;;3.67;1.40;;;;;;;17.56;63.35;98357.25;4957737;28;20478;-80
2023/05/18 04:49:33;;;;;;;3.58;1.48;;;;;;;17.62;63.18;98367.13;4941656;28;20046;-80
2023/05/18 04:51:59;;;;;;;2.50;1.80;;;;;;;17.67;62.96;98367.44;4957515;28;20505;-80
2023/05/18 04:54:25;;;;;;;3.50;1.60;;;;;;;17.75;62.79;98375.31;4974544;28;20433;-81
2023/05/18 04:56:51;;;;;;;5.57;1.80;;;;;;;17.83;62.44;98369.97;4939892;28;20038;-80
2023/05/18 04:59:17;;;;;;;2.30;1.58;;;;;;;17.97;62.06;98375.56;4957427;28;20186;-80
2023/05/18 05:01:42;;;;;;;3.65;1.52;;;;;;;18.11;61.68;98393.31;4925736;28;20043;-83
2023/05/18 05:04:08;;;;;;;6.55;1.73;;;;;;;18.21;61.40;98388.63;4943522;28;20109;-83
2023/05/18 05:06:37;;;;;;;2.95;1.33;;;;;;;18.37;61.06;98403.53;4942708;28;20054;-83
2023/05/18 05:09:02;;;;;;;;;;;;;;;18.57;60.57;98396.00;4957865;28;20042;-81
2023/05/18 05:11:28;;;;;;;5.25;1.80;;;;;;;18.72;59.98;98392.56;4958199;28;19914;-81
2023/05/18 05:13:54;;;;;;;2.58;1.80;;;;;;;18.85;59.57;98387.53;4942287;28;20054;-81
2023/05/18 05:16:19;;;;;;;3.63;1.60;;;;;;;18.98;59.20;98392.22;4941508;28;20498;-83
2023/05/18 05:18:46;;;;;;;2.88;1.40;;;;;;;19.15;58.84;98393.72;4941409;28;20026;-83
2023/05/18 05:21:13;;;;;;;3.70;1.60;;;;;;;19.25;58.61;98398.72;4956049;28;20486;-82
2023/05/18 05:23:40;;;;;;;3.22;2.00;;;;;;;19.32;58.47;98397.03;4957494;28;20046;-80
2023/05/18 05:26:05;;;;;;;2.35;1.42;;;;;;;19.41;58.23;98397.75;4943293;28;20097;-81
2023/05/18 05:28:31;;;;;;;1.98;1.48;;;;;;;19.52;57.90;98399.91;4941348;28;20039;-80
2023/05/18 05:30:57;;;;;;;3.78;1.45;;;;;;;19.62;57.66;98402.28;4941269;28;20145;-82
2023/05/18 05:33:22;;;;;;;3.40;1.70;;;;;;;19.73;57.46;98402.84;4942200;28;20491;-81
2023/05/18 05:35:49;;;;;;;2.00;1.40;;;;;;;19.70;57.44;98402.22;4957326;28;20093;-82
2023/05/18 05:38:14;;;;;;;2.92;1.40;;;;;;;19.73;57.35;98405.50;4957740;28;20049;-82
2023/05/18 05:40:42;;;;;;;7.47;1.70;;;;;;;19.78;57.41;98411.09;4925068;28;20039;-79
2023/05/18 05:43:12;;;;;;;9.82;1.67;;;;;;;19.87;58.16;98413.44;4943087;28;20046;-81
2023/05/18 05:45:42;;;;;;;2.45;1.38;;;;;;;19.96;57.78;98413.38;4957178;28;20058;-79
2023/05/18 05:48:08;;;;;;;2.17;1.27;;;;;;;19.95;57.49;98414.34;4958064;28;20039;-79
2023/05/18 05:50:34;;;;;;;5.55;1.50;;;;;;;19.95;57.39;98415.16;4942569;28;20189;-78
2023/05/18 05:53:00;;;;;;;2.83;1.60;;;;;;;19.95;57.41;98419.66;4957439;28;20047;-79
2023/05/18 05:55:31;;;;;;;3.20;1.60;;;;;;;20.01;57.46;98429.50;4942982;28;20039;-84
2023/05/18 05:57:56;;;;;;;2.65;1.50;;;;;;;20.04;57.14;98432.59;4941267;28;20046;-78
2023/05/18 06:00:31;;;;;;;3.83;1.92;;;;;;;20.04;57.29;98429.97;4940481;28;20043;-79
2023/05/18 06:02:57;;;;;;;3.85;1.50;;;;;;;20.09;57.04;98425.94;4958974;28;20039;-80
2023/05/18 06:05:25;;;;;;;4.38;1.63;;;;;;;20.10;57.09;98425.75;4941534;28;20113;-82
2023/05/18 06:07:51;;;;;;;3.33;1.60;;;;;;;20.12;57.11;98426.38;4940979;28;20046;-78
2023/05/18 06:10:21;;;;;;;4.93;1.60;;;;;;;20.12;56.90;98421.09;4940576;28;20031;-78
2023/05/18 06:12:48;;;;;;;2.97;1.60;;;;;;;20.19;56.71;98429.94;4940655;28;20042;-78
2023/05/18 06:15:13;;;;;;;2.50;1.40;;;;;;;20.21;56.54;98427.91;4956491;28;20455;-78
2023/05/18 06:17:42;;;;;;;2.53;1.50;;;;;;;20.24;56.44;98430.19;4940551;28;20061;-77
2023/05/18 06:20:22;;;;;;;4.47;1.92;;;;;;;20.25;57.73;98433.66;4957777;28;20039;-82
2023/05/18 06:22:55;;;;;;;3.28;1.70;;;;;;;20.39;57.36;98422.19;4961081;28;20045;-89
2023/05/18 06:25:21;;;;;;;10.55;1.90;;;;;;;20.57;57.22;98427.09;4928334;28;20050;-86
2023/05/18 06:27:47;;;;;;;6.82;1.60;;;;;;;20.64;56.62;98432.47;4943219;28;20067;-79
2023/05/18 06:30:13;;;;;;;8.80;1.90;;;;;;;20.66;56.63;98430.44;4942558;28;20134;-79
2023/05/18 06:32:38;;;;;;;5.03;1.70;;;;;;;20.76;56.50;98443.38;4941132;28;20121;-82
2023/05/18 06:35:05;;;;;;;6.40;1.42;;;;;;;20.78;56.11;98436.88;4957934;28;20058;-79
2023/05/18 06:37:30;;;;;;;4.18;1.58;;;;;;;20.87;55.93;98447.38;4924885;28;20409;-80
2023/05/18 06:39:56;;;;;;;5.65;1.70;;;;;;;20.90;55.47;98452.28;4975257;28;20035;-79
2023/05/18 06:42:23;;;;;;;5.45;1.77;;;;;;;20.93;55.43;98451.91;4942146;28;20052;-71
2023/05/18 06:44:49;;;;;;;8.07;1.95;;;;;;;20.93;55.18;98455.38;4973595;28;20039;-74
2023/05/18 06:47:15;;;;;;;12.55;2.20;;;;;;;20.95;55.06;98457.84;4924148;28;20142;-74
2023/05/18 06:49:41;;;;;;;3.80;1.65;;;;;;;20.97;54.77;98461.16;4939641;28;20038;-73
2023/05/18 06:52:08;;;;;;;8.02;1.77;;;;;;;21.01;54.61;98469.53;4955995;28;20035;-73
2023/05/18 06:54:37;;;;;;;5.88;1.98;;;;;;;21.05;54.61;98471.63;4940047;28;20529;-74
2023/05/18 06:57:02;;;;;;;6.95;2.05;;;;;;;21.18;54.10;98472.75;4940325;28;20042;-71
2023/05/18 06:59:28;;;;;;;7.25;2.30;;;;;;;21.28;53.69;98475.88;4956532;28;20042;-73
2023/05/18 07:01:54;;;;;;;2.85;1.90;;;;;;;21.37;53.62;98485.34;4973353;28;20051;-74
2023/05/18 07:04:23;;;;;;;6.88;2.00;;;;;;;21.40;53.32;98478.84;4960110;28;20034;-81
2023/05/18 07:06:48;;;;;;;4.82;1.80;;;;;;;21.42;53.13;98485.59;4958853;28;20431;-72
2023/05/18 07:09:14;;;;;;;2.95;1.98;;;;;;;21.41;52.62;98483.97;4973582;28;20098;-72
2023/05/18 07:11:40;;;;;;;3.95;2.08;;;;;;;21.44;52.71;98483.56;4955211;28;20070;-72
2023/05/18 07:14:05;;;;;;;11.23;1.98;;;;;;;21.46;52.71;98486.03;4955779;28;20039;-73
2023/05/18 07:16:31;;;;;;;3.78;1.70;;;;;;;21.49;52.85;98488.31;4939407;28;20430;-74
2023/05/18 07:19:00;;;;;;;2.95;1.80;;;;;;;21.50;52.45;98490.78;4973051;28;20038;-73
2023/05/18 07:21:25;;;;;;;4.63;2.05;;;;;;;21.57;52.51;98492.66;4943963;28;20050;-72
2023/05/18 07:23:51;;;;;;;4.97;2.05;;;;;;;21.61;52.76;98497.38;4976378;28;20097;-72
2023/05/18 07:26:18;;;;;;;5.50;1.88;;;;;;;21.62;52.36;98496.38;4959345;28;20046;-72
2023/05/18 07:28:43;;;;;;;5.32;2.13;;;;;;;21.73;52.28;98504.81;4943295;28;20134;-73
2023/05/18 07:31:09;;;;;;;6.22;2.08;;;;;;;21.71;51.79;98496.22;4960895;28;20483;-74
2023/05/18 07:33:35;;;;;;;13.23;5.43;;;;;;;21.71;51.27;98499.69;4976709;28;20051;-74
2023/05/18 07:36:00;;;;;;;14.85;7.93;;;;;;;21.70;51.38;98511.34;4976615;28;20121;-76
2023/05/18 07:38:27;;;;;;;8.10;2.90;;;;;;;21.81;52.80;98513.47;4958649;28;20038;-75
2023/05/18 07:40:52;;;;;;;8.88;4.13;;;;;;;21.92;52.15;98512.09;4959133;28;20125;-77
2023/05/18 07:43:18;;;;;;;9.90;3.95;;;;;;;22.00;51.92;98516.44;4959204;28;20042;-72
2023/05/18 07:45:43;;;;;;;9.32;3.78;;;;;;;22.02;51.63;98515.22;4958846;28;20039;-72
2023/05/18 07:48:09;;;;;;;20.83;6.63;;;;;;;22.10;55.83;98514.22;4958773;28;20034;-77
2023/05/18 07:50:35;;;;;;;10.10;4.35;;;;;;;22.24;52.71;98525.75;4928419;28;20047;-79
2023/05/18 07:53:01;;;;;;;6.25;4.05;;;;;;;22.28;53.06;98524.34;4942938;28;20046;-76
2023/05/18 07:55:26;;;;;;;8.45;4.47;;;;;;;22.27;52.79;98528.03;4942912;28;20053;-76
2023/05/18 07:57:52;;;;;;;14.73;4.10;;;;;;;22.27;52.67;98532.53;4976523;28;20042;-79
2023/05/18 08:00:18;;;;;;;9.02;5.18;;;;;;;22.19;53.06;98536.16;4976069;28;20038;-76
2023/05/18 08:02:44;;;;;;;11.10;5.00;;;;;;;22.12;53.41;98541.44;4942530;28;20097;-78
2023/05/18 08:05:10;;;;;;;10.40;4.90;;;;;;;22.11;53.47;98541.66;4943199;28;20055;-77
2023/05/18 08:07:36;;;;;;;13.27;5.13;;;;;;;22.04;53.56;98539.78;4957967;28;20042;-77
2023/05/18 08:10:01;;;;;;;8.73;5.07;;;;;;;22.07;53.44;98541.19;4943112;28;20101;-80
2023/05/18 08:12:28;;;;;;;8.05;4.75;;;;;;;22.13;53.05;98543.06;4975846;28;20035;-78
2023/05/18 08:14:54;;;;;;;15.02;5.10;;;;;;;22.26;53.04;98552.16;4943217;28;20402;-78
2023/05/18 08:17:20;;;;;;;9.35;5.18;;;;;;;22.34;52.52;98552.00;4957959;28;20047;-78
2023/05/18 08:19:46;;;;;;;6.47;4.65;;;;;;;22.45;52.37;98559.41;4942283;28;20486;-76
2023/05/18 08:22:12;;;;;;;7.05;4.30;;;;;;;22.59;51.87;98563.75;4942637;28;20865;-77
2023/05/18 08:24:38;;;;;;;9.02;4.75;;;;;;;22.69;51.86;98560.75;4958705;28;20043;-77
2023/05/18 08:27:05;;;;;;;7.35;4.28;;;;;;;22.68;51.32;98547.66;4976295;28;20498;-79
2023/05/18 08:29:31;;;;;;;12.48;4.88;;;;;;;22.86;51.26;98552.41;4958575;28;20047;-78
2023/05/18 08:31:56;;;;;;;9.82;4.18;;;;;;;22.90;51.07;98559.78;4925203;28;20042;-79
2023/05/18 08:34:22;;;;;;;8.18;4.32;;;;;;;22.95;51.10;98567.97;4958607;28;20034;-79
2023/05/18 08:36:47;;;;;;;6.95;4.28;;;;;;;22.95;50.69;98553.84;4958020;28;20055;-78
2023/05/18 08:39:13;;;;;;;10.10;4.22;;;;;;;22.95;51.15;98567.97;4942621;28;20035;-79
2023/05/18 08:41:57;;;;;;;9.32;4.07;;;;;;;22.91;51.11;98566.75;4958500;28;20097;-77
2023/05/18 08:44:34;;;;;;;7.05;4.88;;;;;;;22.83;51.49;98566.91;4975654;28;20031;-80
2023/05/18 08:46:59;;;;;;;8.02;5.30;;;;;;;22.77;51.57;98568.56;4942396;28;20070;-78
2023/05/18 08:49:25;;;;;;;6.28;4.45;;;;;;;22.70;51.56;98562.38;4958150;28;20398;-79
2023/05/18 08:51:57;;;;;;;6.75;4.50;;;;;;;22.71;51.52;98576.53;4926662;28;20116;-78
2023/05/18 08:54:23;;;;;;;6.43;4.45;;;;;;;22.70;51.82;98580.19;4958347;28;20042;-80
2023/05/18 08:56:49;;;;;;;5.50;4.10;;;;;;;22.69;51.58;98579.38;4942273;28;20039;-79
2023/05/18 08:59:18;;;;;;;7.18;4.35;;;;;;;22.71;51.78;98572.00;4940987;28;20043;-78
2023/05/18 09:01:44;;;;;;;8.23;4.53;;;;;;;22.76;51.66;98576.72;4941516;28;20134;-79
2023/05/18 09:04:09;;;;;;;9.95;3.95;;;;;;;22.81;51.60;98584.94;4942034;28;20065;-78
2023/05/18 09:06:35;;;;;;;6.38;4.13;;;;;;;22.76;51.53;98584.72;4941406;28;20045;-81
2023/05/18 09:09:03;;;;;;;8.38;4.30;;;;;;;22.77;51.61;98581.03;4924847;28;20042;-77
2023/05/18 09:11:31;;;;;;;5.15;3.60;;;;;;;22.80;51.68;98593.91;4942553;28;20034;-77
2023/05/18 09:13:57;;;;;;;6.68;3.88;;;;;;;22.83;51.50;98596.19;4941920;28;20093;-78
2023/05/18 09:16:23;;;;;;;7.30;4.00;;;;;;;22.87;51.38;98588.66;4957188;28;20058;-78
2023/05/18 09:18:48;;;;;;;5.78;3.35;;;;;;;22.90;51.44;98588.25;4926653;28;20035;-77
2023/05/18 09:21:14;;;;;;;5.72;3.58;;;;;;;22.91;51.53;98587.22;4941300;28;20560;-78
2023/05/18 09:23:40;;;;;;;6.80;3.53;;;;;;;22.88;51.45;98593.78;4941131;28;20039;-77
2023/05/18 09:26:08;;;;;;;6.07;3.72;;;;;;;22.85;51.58;98596.00;4974310;28;20043;-78
2023/05/18 09:28:34;;;;;;;6.30;4.15;;;;;;;22.89;51.80;98595.38;4941536;28;20035;-77
2023/05/18 09:30:59;;;;;;;5.70;3.65;;;;;;;22.88;51.72;98599.09;4974233;28;20121;-78
2023/05/18 09:33:25;;;;;;;5.47;3.40;;;;;;;22.87;51.67;98601.94;4956882;28;20051;-78
2023/05/18 09:35:50;;;;;;;4.55;3.03;;;;;;;22.83;51.91;98598.84;4956693;28;20501;-77
2023/05/18 09:38:20;;;;;;;5.60;3.40;;;;;;;22.87;51.93;98602.75;4941285;28;20114;-79
2023/05/18 09:40:49;;;;;;;5.03;3.00;;;;;;;22.93;51.71;98590.50;4957563;28;20514;-79
2023/05/18 09:43:18;;;;;;;5.43;2.95;;;;;;;23.03;51.49;98598.91;4939863;28;20043;-78
2023/05/18 09:45:45;;;;;;;6.63;3.20;;;;;;;23.09;51.18;98607.97;4956704;28;20046;-76
2023/05/18 09:48:10;;;;;;;7.07;3.25;;;;;;;23.09;51.37;98595.47;4940800;28;20346;-77
2023/05/18 09:50:38;;;;;;;5.07;3.17;;;;;;;23.11;51.42;98587.28;4956778;28;20039;-78
2023/05/18 09:53:08;;;;;;;6.22;3.38;;;;;;;23.17;51.24;98596.34;4941373;28;20039;-77
2023/05/18 09:55:40;;;;;;;4.88;3.17;;;;;;;23.16;50.96;98592.03;4940810;28;20093;-77
2023/05/18 09:58:06;;;;;;;4.85;3.05;;;;;;;23.14;51.26;98592.22;4941750;28;20098;-77
2023/05/18 10:00:34;;;;;;;5.18;3.03;;;;;;;23.16;51.31;98600.81;4941253;28;20043;-79
2023/05/18 10:02:59;;;;;;;4.10;2.97;;;;;;;23.16;51.33;98598.16;4941062;28;20112;-78
2023/05/18 10:05:33;;;;;;;4.18;2.95;;;;;;;23.17;51.07;98586.50;4973508;28;20051;-76
2023/05/18 10:07:59;;;;;;;3.53;2.40;;;;;;;23.21;50.98;98601.03;4955867;28;20418;-77
2023/05/18 10:10:25;;;;;;;4.85;2.58;;;;;;;23.25;51.02;98594.28;4956547;28;20053;-78
2023/05/18 10:12:51;;;;;;;3.72;2.28;;;;;;;23.34;50.63;98594.94;4940522;28;20042;-76
2023/05/18 10:15:19;;;;;;;5.03;2.30;;;;;;;23.42;50.58;98594.72;4940798;28;20035;-78
2023/05/18 10:17:46;;;;;;;4.03;2.53;;;;;;;23.50;50.35;98583.06;4924880;28;20062;-76
2023/05/18 10:20:14;;;;;;;4.22;2.30;;;;;;;23.53;49.84;98587.97;4926177;28;20106;-77
2023/05/18 10:22:39;;;;;;;;;;;;;;;23.59;49.95;98591.66;4925252;28;20133;-76
2023/05/18 10:25:06;;;;;;;4.95;2.40;;;;;;;23.61;49.94;98587.75;4956164;28;20001;-76
2023/05/18 10:27:33;;;;;;;4.05;2.35;;;;;;;23.60;49.69;98602.09;4956430;28;20035;-75
2023/05/18 10:30:02;;;;;;;3.75;2.13;;;;;;;23.61;49.65;98605.56;4940141;28;20046;-75
2023/05/18 10:32:28;;;;;;;2.83;1.90;;;;;;;23.58;49.57;98612.16;4941261;28;20027;-77
2023/05/18 10:34:55;;;;;;;3.75;2.20;;;;;;;23.52;49.57;98604.16;4940309;28;20039;-78
2023/05/18 10:37:22;;;;;;;2.75;1.90;;;;;;;23.46;49.76;98601.25;4939960;28;20517;-79
2023/05/18 10:39:47;;;;;;;4.40;2.30;;;;;;;23.39;49.64;98610.25;4941139;28;20047;-76
2023/05/18 10:42:13;;;;;;;3.47;2.20;;;;;;;23.33;49.97;98611.09;4956244;28;20045;-81
2023/05/18 10:44:38;;;;;;;3.05;2.08;;;;;;;23.22;50.11;98616.00;4956163;28;20561;-77
2023/05/18 10:47:04;;;;;;;3.67;2.17;;;;;;;23.10;50.41;98607.78;4956185;28;20053;-75
2023/05/18 10:49:30;;;;;;;3.05;2.05;;;;;;;22.94;50.63;98614.25;4940157;28;20490;-75
2023/05/18 10:51:55;;;;;;;3.25;1.83;;;;;;;22.87;50.85;98615.25;4940434;28;20039;-77
2023/05/18 10:54:24;;;;;;;4.75;1.80;;;;;;;22.73;51.15;98615.19;4940832;28;20042;-77
2023/05/18 10:56:52;;;;;;;4.60;2.20;;;;;;;22.63;51.23;98614.75;4928615;28;20097;-77
2023/05/18 10:59:19;;;;;;;4.78;2.00;;;;;;;22.53;51.60;98633.75;4943514;28;20118;-79
2023/05/18 11:01:45;;;;;;;3.15;1.90;;;;;;;22.40;51.73;98636.31;4927770;28;20031;-75
2023/05/18 11:04:10;;;;;;;3.05;1.75;;;;;;;22.31;52.15;98630.34;4943892;28;20051;-78
2023/05/18 11:06:37;;;;;;;5.20;1.80;;;;;;;22.23;52.35;98639.25;4959415;28;20038;-76
2023/05/18 11:09:02;;;;;;;3.70;2.00;;;;;;;22.06;52.63;98637.94;4959717;28;20034;-76
2023/05/18 11:11:30;;;;;;;2.55;1.75;;;;;;;21.92;53.05;98636.16;4927638;28;20037;-77
2023/05/18 11:14:00;;;;;;;;;;;;;;;21.79;53.20;98642.19;4928565;28;20039;-77
2023/05/18 11:16:33;;;;;;;3.75;1.98;;;;;;;21.64;53.74;98652.91;4976519;28;19929;-76
2023/05/18 11:19:04;;;;;;;3.50;1.70;;;;;;;21.54;54.09;98657.69;4943731;28;20065;-76
2023/05/18 11:21:48;;;;;;;3.17;1.60;;;;;;;21.44;54.20;98658.81;4927903;28;20042;-78
2023/05/18 11:24:20;;;;;;;4.03;1.83;;;;;;;21.36;54.64;98669.53;4945635;28;20075;-76
2023/05/18 11:26:53;;;;;;;2.70;1.63;;;;;;;21.29;54.84;98669.47;4959605;28;20047;-75
2023/05/18 11:29:47;;;;;;;3.25;2.05;;;;;;;21.26;54.65;98682.31;4928421;28;20491;-77
2023/05/18 11:32:31;;;;;;;2.50;1.92;;;;;;;21.16;55.19;98682.63;4945388;28;20096;-79
2023/05/18 11:34:56;;;;;;;2.47;1.80;;;;;;;21.16;54.97;98690.59;4943918;28;20035;-78